Time;durP1;ratioP1;P1;durP2;ratioP2;P2;SDS_P1;SDS_P2;PMS_P1;PMS_P2;Temp;Humidity;BMP_temperature;BMP_pressure;BME280_temperature;BME280_humidity;BME280_pressure;Samples;Min_cycle;Max_cycle;Signal;HPM_P1;HPM_P2
2022/04/27 00:00:05;;;;;;;4.20;3.37;;;;;;;;;;5078305;28;20636;-74
2022/04/27 00:02:33;;;;;;;3.70;3.33;;;;;;;;;;5076071;28;20241;-74
2022/04/27 00:05:01;;;;;;;5.07;3.50;;;;;;;;;;5075578;28;20635;-74
2022/04/27 00:07:29;;;;;;;3.40;3.10;;;;;;;;;;5075864;28;20722;-74
2022/04/27 00:09:57;;;;;;;4.97;3.43;;;;;;;;;;5076936;28;20213;-74
2022/04/27 00:12:27;;;;;;;6.07;3.80;;;;;;;;;;5076227;28;20241;-75
2022/04/27 00:14:55;;;;;;;4.97;3.47;;;;;;;;;;5075676;28;20230;-74
2022/04/27 00:17:23;;;;;;;3.87;3.40;;;;;;;;;;5072110;28;20261;-74
2022/04/27 00:19:51;;;;;;;6.97;3.97;;;;;;;;;;5075055;28;20658;-73
2022/04/27 00:22:19;;;;;;;4.87;3.80;;;;;;;;;;5068064;28;20210;-74
2022/04/27 00:24:47;;;;;;;4.80;3.83;;;;;;;;;;5073848;28;20202;-73
2022/04/27 00:27:15;;;;;;;6.67;3.90;;;;;;;;;;5068944;28;20310;-74
2022/04/27 00:29:45;;;;;;;4.27;3.70;;;;;;;;;;5070958;28;20230;-73
2022/04/27 00:32:13;;;;;;;4.57;4.03;;;;;;;;;;5069218;28;20237;-73
2022/04/27 00:34:41;;;;;;;3.80;3.43;;;;;;;;;;5070210;28;20203;-73
2022/04/27 00:37:09;;;;;;;4.00;3.60;;;;;;;;;;5068311;28;20257;-74
2022/04/27 00:39:37;;;;;;;4.47;4.17;;;;;;;;;;5073215;28;20281;-74
2022/04/27 00:42:13;;;;;;;6.30;4.37;;;;;;;;;;5071913;28;20289;-74
2022/04/27 00:44:43;;;;;;;5.10;3.80;;;;;;;;;;5074661;28;20226;-74
2022/04/27 00:47:13;;;;;;;4.67;4.23;;;;;;;;;;5070716;28;20222;-74
2022/04/27 00:49:42;;;;;;;4.37;3.90;;;;;;;;;;5076025;28;20263;-73
2022/04/27 00:52:12;;;;;;;7.20;4.23;;;;;;;;;;5072606;28;20290;-73
2022/04/27 00:54:40;;;;;;;4.93;3.87;;;;;;;;;;5070619;28;20194;-74
2022/04/27 00:57:09;;;;;;;4.53;4.10;;;;;;;;;;5070435;28;20760;-74
2022/04/27 00:59:37;;;;;;;6.93;4.43;;;;;;;;;;5071122;28;20230;-73
2022/04/27 01:02:06;;;;;;;4.57;4.17;;;;;;;;;;5072676;28;20226;-74
2022/04/27 01:04:36;;;;;;;6.90;4.50;;;;;;;;;;5071233;28;20199;-73
2022/04/27 01:07:05;;;;;;;8.20;4.90;;;;;;;;;;5070097;28;20218;-73
2022/04/27 01:09:34;;;;;;;5.23;4.80;;;;;;;;;;5071109;28;20285;-73
2022/04/27 01:12:02;;;;;;;6.30;4.93;;;;;;;;;;5070238;28;20234;-73
2022/04/27 01:14:40;;;;;;;6.50;4.90;;;;;;;;;;5068115;28;20640;-73
2022/04/27 01:17:08;;;;;;;5.10;4.60;;;;;;;;;;5071948;28;20268;-74
2022/04/27 01:19:38;;;;;;;7.80;4.87;;;;;;;;;;5069933;28;20769;-73
2022/04/27 01:22:08;;;;;;;6.30;5.67;;;;;;;;;;5069450;28;20297;-73
2022/04/27 01:24:36;;;;;;;6.83;5.33;;;;;;;;;;5072192;28;20202;-73
2022/04/27 01:27:05;;;;;;;5.93;5.20;;;;;;;;;;5070548;28;20795;-74
2022/04/27 01:29:33;;;;;;;7.70;5.50;;;;;;;;;;5071936;28;20229;-73
2022/04/27 01:32:02;;;;;;;5.43;4.93;;;;;;;;;;5070048;28;20229;-73
2022/04/27 01:34:30;;;;;;;7.03;5.17;;;;;;;;;;5070730;28;20209;-74
2022/04/27 01:37:59;;;;;;;7.87;5.30;;;;;;;;;;5070256;28;20268;-73
2022/04/27 01:39:54;;;;;;;5.73;4.70;;;;;;;;;;5070055;28;20720;-73
2022/04/27 01:42:39;;;;;;;6.87;5.30;;;;;;;;;;5073156;28;20681;-73
2022/04/27 01:45:08;;;;;;;8.73;5.37;;;;;;;;;;5068062;28;20675;-74
2022/04/27 01:47:36;;;;;;;6.90;4.87;;;;;;;;;;5073100;28;20202;-73
2022/04/27 01:50:04;;;;;;;7.87;5.57;;;;;;;;;;5076188;28;20202;-73
2022/04/27 01:55:19;;;;;;;6.20;5.60;;;;;;;;;;5073701;28;20202;-74
2022/04/27 01:57:48;;;;;;;6.70;5.37;;;;;;;;;;5076303;28;20256;-73
2022/04/27 02:00:17;;;;;;;5.83;5.23;;;;;;;;;;5077009;28;20203;-74
2022/04/27 02:02:45;;;;;;;6.50;5.40;;;;;;;;;;5069413;28;20230;-73
2022/04/27 02:05:13;;;;;;;7.67;5.80;;;;;;;;;;5076996;28;20214;-74
2022/04/27 02:07:43;;;;;;;9.20;5.60;;;;;;;;;;5071528;28;20206;-73
2022/04/27 02:10:11;;;;;;;9.73;6.27;;;;;;;;;;5072344;28;20198;-74
2022/04/27 02:12:40;;;;;;;7.30;5.27;;;;;;;;;;5073199;28;20568;-73
2022/04/27 02:15:09;;;;;;;6.03;5.43;;;;;;;;;;5076118;28;20202;-73
2022/04/27 02:17:37;;;;;;;8.30;5.53;;;;;;;;;;5073846;28;20202;-74
2022/04/27 02:20:05;;;;;;;6.33;5.73;;;;;;;;;;5073243;28;20225;-74
2022/04/27 02:22:34;;;;;;;8.33;6.23;;;;;;;;;;5075995;28;20198;-73
2022/04/27 02:25:02;;;;;;;11.43;5.93;;;;;;;;;;5070812;28;20728;-73
2022/04/27 02:27:31;;;;;;;6.97;5.10;;;;;;;;;;5076536;28;20198;-74
2022/04/27 02:30:00;;;;;;;6.43;5.83;;;;;;;;;;5076651;28;20195;-73
2022/04/27 02:32:28;;;;;;;6.80;5.97;;;;;;;;;;5068694;28;20220;-74
2022/04/27 02:34:56;;;;;;;8.33;6.40;;;;;;;;;;5073977;28;20194;-73
2022/04/27 02:37:24;;;;;;;7.97;6.80;;;;;;;;;;5072762;28;20606;-73
2022/04/27 02:39:52;;;;;;;6.53;5.93;;;;;;;;;;5073407;28;20225;-73
2022/04/27 02:42:21;;;;;;;7.80;6.27;;;;;;;;;;5075911;28;20207;-73
2022/04/27 02:44:49;;;;;;;7.70;5.83;;;;;;;;;;5076439;28;20228;-73
2022/04/27 02:47:18;;;;;;;7.53;6.20;;;;;;;;;;5073107;28;20586;-73
2022/04/27 02:52:32;;;;;;;7.00;6.27;;;;;;;;;;5072895;28;20213;-74
2022/04/27 02:55:00;;;;;;;8.63;6.77;;;;;;;;;;5076621;28;20202;-74
2022/04/27 02:57:28;;;;;;;7.80;7.00;;;;;;;;;;5072560;28;20252;-74
2022/04/27 02:59:56;;;;;;;6.67;5.43;;;;;;;;;;5073563;28;20689;-73
2022/04/27 03:02:25;;;;;;;11.07;6.20;;;;;;;;;;5075808;28;20230;-74
2022/04/27 03:04:53;;;;;;;11.67;7.30;;;;;;;;;;5068878;28;20206;-74
2022/04/27 03:07:21;;;;;;;8.90;6.67;;;;;;;;;;5073009;28;20225;-74
2022/04/27 03:09:50;;;;;;;6.77;6.07;;;;;;;;;;5072548;28;20207;-74
2022/04/27 03:12:18;;;;;;;7.13;6.37;;;;;;;;;;5065432;28;20662;-74
2022/04/27 03:14:46;;;;;;;8.43;6.47;;;;;;;;;;5072800;28;20272;-74
2022/04/27 03:17:14;;;;;;;10.40;6.40;;;;;;;;;;5075688;28;20226;-74
2022/04/27 03:19:43;;;;;;;8.33;6.57;;;;;;;;;;5076335;28;20704;-74
2022/04/27 03:22:11;;;;;;;9.07;6.47;;;;;;;;;;5080347;28;20205;-74
2022/04/27 03:24:39;;;;;;;7.90;6.60;;;;;;;;;;5079215;28;20225;-73
2022/04/27 03:27:07;;;;;;;8.97;6.73;;;;;;;;;;5079821;28;20252;-73
2022/04/27 03:29:35;;;;;;;8.13;6.93;;;;;;;;;;5079811;28;20202;-73
2022/04/27 03:32:03;;;;;;;8.10;6.87;;;;;;;;;;5076711;28;20203;-74
2022/04/27 03:34:31;;;;;;;7.30;6.47;;;;;;;;;;5077734;28;20198;-74
2022/04/27 03:37:01;;;;;;;9.67;7.40;;;;;;;;;;5067890;28;20227;-73
2022/04/27 03:39:29;;;;;;;10.03;7.10;;;;;;;;;;5076691;28;20272;-74
2022/04/27 03:42:12;;;;;;;10.47;7.10;;;;;;;;;;5076319;28;20730;-73
2022/04/27 03:44:40;;;;;;;8.13;6.97;;;;;;;;;;5076492;28;20206;-73
2022/04/27 03:47:08;;;;;;;9.20;6.93;;;;;;;;;;5071623;28;20826;-73
2022/04/27 03:49:36;;;;;;;9.30;6.97;;;;;;;;;;5074284;28;20196;-73
2022/04/27 03:52:07;;;;;;;10.00;6.80;;;;;;;;;;5072451;28;20769;-73
2022/04/27 03:54:35;;;;;;;7.77;6.93;;;;;;;;;;5068760;28;20207;-73
2022/04/27 03:57:03;;;;;;;8.33;7.13;;;;;;;;;;5070103;28;20227;-73
2022/04/27 03:59:31;;;;;;;8.53;7.03;;;;;;;;;;5071573;28;20612;-73
2022/04/27 04:01:59;;;;;;;9.03;6.63;;;;;;;;;;5071176;28;20230;-73
2022/04/27 04:04:28;;;;;;;8.97;6.07;;;;;;;;;;5072317;28;20194;-73
2022/04/27 04:06:56;;;;;;;8.87;7.03;;;;;;;;;;5072602;28;20222;-73
2022/04/27 04:09:25;;;;;;;11.00;6.83;;;;;;;;;;5072708;28;20257;-73
2022/04/27 04:11:53;;;;;;;8.40;6.40;;;;;;;;;;5071488;28;20194;-74
2022/04/27 04:14:21;;;;;;;9.63;7.13;;;;;;;;;;5071759;28;20207;-73
2022/04/27 04:16:49;;;;;;;10.67;7.30;;;;;;;;;;5074541;28;20272;-73
2022/04/27 04:19:18;;;;;;;8.53;7.00;;;;;;;;;;5074424;28;20227;-74
2022/04/27 04:21:46;;;;;;;12.07;7.37;;;;;;;;;;5075953;28;20199;-74
2022/04/27 04:24:14;;;;;;;10.07;7.33;;;;;;;;;;5078383;28;20202;-74
2022/04/27 04:29:31;;;;;;;11.23;6.97;;;;;;;;;;5073946;28;20257;-74
2022/04/27 04:31:59;;;;;;;9.20;7.20;;;;;;;;;;5074836;28;20235;-73
2022/04/27 04:34:27;;;;;;;8.00;6.90;;;;;;;;;;5073622;28;20202;-74
2022/04/27 04:36:55;;;;;;;13.23;7.07;;;;;;;;;;5074315;28;20219;-73
2022/04/27 04:39:23;;;;;;;9.37;7.93;;;;;;;;;;5071966;28;20281;-74
2022/04/27 04:41:53;;;;;;;9.33;7.30;;;;;;;;;;5070991;28;20546;-73
2022/04/27 04:44:21;;;;;;;8.03;6.97;;;;;;;;;;5073240;28;20198;-73
2022/04/27 04:46:49;;;;;;;7.73;6.53;;;;;;;;;;5069406;28;20218;-74
2022/04/27 04:49:17;;;;;;;7.83;6.70;;;;;;;;;;5071233;28;20199;-74
2022/04/27 04:51:45;;;;;;;7.90;6.80;;;;;;;;;;5072144;28;20202;-75
2022/04/27 04:54:13;;;;;;;9.73;6.40;;;;;;;;;;5070884;28;20207;-74
2022/04/27 04:56:41;;;;;;;11.63;9.13;;;;;;;;;;5073693;28;20257;-74
2022/04/27 04:59:11;;;;;;;10.77;7.20;;;;;;;;;;5069411;28;20582;-73
2022/04/27 05:01:39;;;;;;;8.83;7.27;;;;;;;;;;5073301;28;20239;-71
2022/04/27 05:04:07;;;;;;;8.23;7.33;;;;;;;;;;5078215;28;20717;-73
2022/04/27 05:06:35;;;;;;;9.57;7.57;;;;;;;;;;5076557;28;20226;-73
2022/04/27 05:09:03;;;;;;;8.87;7.07;;;;;;;;;;5078062;28;20199;-73
2022/04/27 05:11:31;;;;;;;8.93;7.47;;;;;;;;;;5076939;28;20202;-72
2022/04/27 05:13:59;;;;;;;9.60;6.53;;;;;;;;;;5063271;28;20202;-73
2022/04/27 05:16:31;;;;;;;11.90;7.67;;;;;;;;;;5075949;28;20222;-73
2022/04/27 05:18:59;;;;;;;12.23;8.10;;;;;;;;;;5073835;28;20252;-73
2022/04/27 05:21:27;;;;;;;9.80;7.53;;;;;;;;;;5073725;28;20202;-73
2022/04/27 05:23:55;;;;;;;10.03;7.63;;;;;;;;;;5071498;28;20211;-73
2022/04/27 05:26:23;;;;;;;9.53;6.93;;;;;;;;;;5073904;28;20222;-73
2022/04/27 05:31:57;;;;;;;11.53;7.57;;;;;;;;;;5077387;28;20210;-73
2022/04/27 05:34:26;;;;;;;11.47;8.10;;;;;;;;;;5068732;28;20198;-74
2022/04/27 05:36:54;;;;;;;10.97;7.90;;;;;;;;;;5074844;28;20218;-74
2022/04/27 05:39:22;;;;;;;8.80;7.90;;;;;;;;;;5073001;28;20199;-74
2022/04/27 05:41:51;;;;;;;11.43;8.20;;;;;;;;;;5068996;28;20225;-74
2022/04/27 05:44:19;;;;;;;10.00;8.33;;;;;;;;;;5070807;28;20255;-74
2022/04/27 05:46:49;;;;;;;9.93;8.17;;;;;;;;;;5068469;28;20252;-74
2022/04/27 05:49:17;;;;;;;11.37;8.83;;;;;;;;;;5066771;28;20581;-74
2022/04/27 05:51:45;;;;;;;12.77;9.17;;;;;;;;;;5069175;28;20249;-72
2022/04/27 05:54:14;;;;;;;11.73;8.67;;;;;;;;;;5067132;28;20726;-71
2022/04/27 05:56:42;;;;;;;11.67;8.90;;;;;;;;;;5072305;28;20250;-73
2022/04/27 05:59:11;;;;;;;13.13;9.27;;;;;;;;;;5069552;28;20210;-74
2022/04/27 06:01:39;;;;;;;13.83;9.70;;;;;;;;;;5070709;28;20234;-74
2022/04/27 06:04:08;;;;;;;11.87;9.27;;;;;;;;;;5072945;28;20202;-74
2022/04/27 06:06:36;;;;;;;13.50;9.67;;;;;;;;;;5070203;28;20715;-74
2022/04/27 06:09:04;;;;;;;11.97;8.93;;;;;;;;;;5071347;28;20268;-74
2022/04/27 06:11:33;;;;;;;15.70;10.07;;;;;;;;;;5071424;28;20604;-74
2022/04/27 06:14:01;;;;;;;12.13;9.07;;;;;;;;;;5070258;28;20203;-74
2022/04/27 06:16:32;;;;;;;11.93;9.10;;;;;;;;;;5071271;28;20686;-74
2022/04/27 06:19:00;;;;;;;14.03;10.13;;;;;;;;;;5075654;28;20237;-74
2022/04/27 06:21:31;;;;;;;12.47;9.87;;;;;;;;;;5066942;28;20280;-74
2022/04/27 06:24:00;;;;;;;11.20;8.77;;;;;;;;;;5073248;28;20202;-74
2022/04/27 06:26:30;;;;;;;14.60;10.03;;;;;;;;;;5068954;28;20225;-74
2022/04/27 06:28:58;;;;;;;12.40;9.13;;;;;;;;;;5069049;28;20617;-75
2022/04/27 06:31:26;;;;;;;12.53;8.53;;;;;;;;;;5066370;28;20195;-75
2022/04/27 06:33:54;;;;;;;11.73;9.33;;;;;;;;;;5068658;28;20224;-75
2022/04/27 06:36:23;;;;;;;13.53;9.80;;;;;;;;;;5070427;28;20775;-75
2022/04/27 06:38:52;;;;;;;12.73;9.03;;;;;;;;;;5070284;28;20564;-75
2022/04/27 06:41:23;;;;;;;12.67;9.63;;;;;;;;;;5072207;28;20228;-75
2022/04/27 06:43:51;;;;;;;14.60;10.10;;;;;;;;;;5070057;28;20320;-75
2022/04/27 06:46:19;;;;;;;12.30;9.33;;;;;;;;;;5067113;28;20253;-74
2022/04/27 06:48:48;;;;;;;18.17;9.27;;;;;;;;;;5071866;28;20234;-73
2022/04/27 06:51:18;;;;;;;13.97;10.00;;;;;;;;;;5068952;28;20248;-74
2022/04/27 06:53:47;;;;;;;15.93;9.37;;;;;;;;;;5073172;28;20244;-72
2022/04/27 06:56:17;;;;;;;11.40;9.03;;;;;;;;;;5074053;28;20226;-73
2022/04/27 06:58:45;;;;;;;12.03;9.80;;;;;;;;;;5074106;28;20251;-73
2022/04/27 07:01:13;;;;;;;12.03;9.50;;;;;;;;;;5071312;28;20218;-74
2022/04/27 07:03:43;;;;;;;12.40;9.17;;;;;;;;;;5077215;28;20226;-74
2022/04/27 07:06:11;;;;;;;13.37;9.43;;;;;;;;;;5073757;28;20230;-74
2022/04/27 07:08:40;;;;;;;15.20;10.13;;;;;;;;;;5076266;28;20622;-74
2022/04/27 07:11:08;;;;;;;14.57;10.20;;;;;;;;;;5077667;28;20205;-74
2022/04/27 07:13:38;;;;;;;14.37;9.07;;;;;;;;;;5074957;28;20206;-74
2022/04/27 07:16:06;;;;;;;14.43;10.07;;;;;;;;;;5072576;28;20225;-75
2022/04/27 07:18:35;;;;;;;16.27;9.17;;;;;;;;;;5076403;28;20240;-74
2022/04/27 07:21:05;;;;;;;13.27;8.73;;;;;;;;;;5074051;28;20218;-74
2022/04/27 07:23:38;;;;;;;12.67;8.87;;;;;;;;;;5075973;28;20760;-74
2022/04/27 07:26:06;;;;;;;11.10;9.10;;;;;;;;;;5076620;28;20218;-74
2022/04/27 07:28:35;;;;;;;14.63;9.67;;;;;;;;;;5067998;28;20206;-73
2022/04/27 07:31:04;;;;;;;11.00;8.83;;;;;;;;;;5070274;28;20608;-74
2022/04/27 07:33:32;;;;;;;13.47;8.53;;;;;;;;;;5072126;28;20278;-75
2022/04/27 07:36:01;;;;;;;12.63;9.70;;;;;;;;;;5077589;28;20254;-74
2022/04/27 07:38:29;;;;;;;12.47;9.23;;;;;;;;;;5072427;28;20257;-74
2022/04/27 07:40:56;;;;;;;10.57;8.53;;;;;;;;;;5072620;28;20264;-74
2022/04/27 07:43:24;;;;;;;13.03;9.33;;;;;;;;;;5074424;28;20213;-73
2022/04/27 07:45:52;;;;;;;13.40;9.53;;;;;;;;;;5074458;28;20218;-74
2022/04/27 07:48:22;;;;;;;10.80;8.43;;;;;;;;;;5075723;28;20206;-74
2022/04/27 07:50:50;;;;;;;12.13;9.83;;;;;;;;;;5070015;28;20190;-74
2022/04/27 07:53:18;;;;;;;11.40;8.23;;;;;;;;;;5072239;28;20199;-74
2022/04/27 07:55:46;;;;;;;12.13;8.60;;;;;;;;;;5070766;28;20215;-74
2022/04/27 07:58:13;;;;;;;12.43;9.27;;;;;;;;;;5071475;28;20199;-74
2022/04/27 08:00:41;;;;;;;10.63;8.63;;;;;;;;;;5069338;28;20662;-74
2022/04/27 08:03:09;;;;;;;13.70;8.83;;;;;;;;;;5069213;28;20243;-74
2022/04/27 08:05:39;;;;;;;14.03;9.80;;;;;;;;;;5073022;28;20227;-76
2022/04/27 08:08:08;;;;;;;11.63;9.37;;;;;;;;;;5071648;28;20712;-74
2022/04/27 08:10:37;;;;;;;13.07;10.70;;;;;;;;;;5070046;28;20214;-74
2022/04/27 08:13:05;;;;;;;12.60;9.17;;;;;;;;;;5072175;28;20248;-73
2022/04/27 08:15:33;;;;;;;13.07;8.90;;;;;;;;;;5071959;28;20631;-73
2022/04/27 08:18:01;;;;;;;12.37;9.93;;;;;;;;;;5069993;28;20293;-73
2022/04/27 08:23:22;;;;;;;12.67;8.83;;;;;;;;;;5071280;28;20215;-71
2022/04/27 08:25:50;;;;;;;12.30;8.77;;;;;;;;;;5069708;28;20249;-71
2022/04/27 08:28:19;;;;;;;13.83;9.40;;;;;;;;;;5073137;28;20297;-72
2022/04/27 08:30:48;;;;;;;12.63;8.60;;;;;;;;;;5072519;28;20206;-71
2022/04/27 08:33:16;;;;;;;13.10;8.97;;;;;;;;;;5068082;28;20203;-71
2022/04/27 08:35:44;;;;;;;9.87;8.53;;;;;;;;;;5071246;28;20219;-72
2022/04/27 08:38:13;;;;;;;10.17;8.00;;;;;;;;;;5071715;28;20198;-72
2022/04/27 08:40:43;;;;;;;12.13;8.90;;;;;;;;;;5073065;28;20567;-73
2022/04/27 08:43:11;;;;;;;11.43;8.57;;;;;;;;;;5066792;28;20210;-71
2022/04/27 08:45:41;;;;;;;12.60;8.77;;;;;;;;;;5072424;28;20234;-72
2022/04/27 08:48:09;;;;;;;11.63;9.23;;;;;;;;;;5071294;28;20234;-72
2022/04/27 08:50:37;;;;;;;14.13;8.70;;;;;;;;;;5073050;28;20375;-72
2022/04/27 08:53:05;;;;;;;9.77;7.90;;;;;;;;;;5072710;28;20214;-72
2022/04/27 08:55:36;;;;;;;12.07;9.00;;;;;;;;;;5073950;28;20222;-71
2022/04/27 08:58:11;;;;;;;14.33;8.87;;;;;;;;;;5069423;28;20205;-72
2022/04/27 09:01:00;;;;;;;11.90;8.77;;;;;;;;;;5071698;28;20293;-70
2022/04/27 09:03:29;;;;;;;9.67;7.97;;;;;;;;;;5069484;28;20226;-71
2022/04/27 09:06:01;;;;;;;11.37;8.20;;;;;;;;;;5068393;28;20242;-70
2022/04/27 09:08:37;;;;;;;11.67;8.27;;;;;;;;;;5074717;28;20256;-72
2022/04/27 09:11:11;;;;;;;11.93;8.63;;;;;;;;;;5072614;28;20255;-71
2022/04/27 09:13:41;;;;;;;10.10;8.27;;;;;;;;;;5072168;28;20198;-71
2022/04/27 09:16:09;;;;;;;11.90;8.13;;;;;;;;;;5067780;28;20219;-71
2022/04/27 09:21:32;;;;;;;10.43;8.00;;;;;;;;;;5069665;28;20258;-71
2022/04/27 09:24:02;;;;;;;8.67;7.67;;;;;;;;;;5068282;28;20252;-71
2022/04/27 09:26:31;;;;;;;13.20;8.90;;;;;;;;;;5071703;28;20258;-72
2022/04/27 09:29:00;;;;;;;8.13;7.17;;;;;;;;;;5074132;28;20210;-71
2022/04/27 09:31:29;;;;;;;12.97;8.03;;;;;;;;;;5069089;28;20202;-70
2022/04/27 09:34:00;;;;;;;7.73;6.53;;;;;;;;;;5068239;28;20202;-71
2022/04/27 09:36:28;;;;;;;9.47;8.03;;;;;;;;;;5071803;28;20252;-72
2022/04/27 09:38:57;;;;;;;9.67;6.77;;;;;;;;;;5073426;28;20198;-71
2022/04/27 09:41:38;;;;;;;8.30;7.50;;;;;;;;;;5072181;28;20211;-71
2022/04/27 09:44:08;;;;;;;8.50;6.47;;;;;;;;;;5071037;28;20260;-71
2022/04/27 09:46:41;;;;;;;8.43;6.70;;;;;;;;;;5064473;28;20222;-71
2022/04/27 09:49:11;;;;;;;9.17;6.83;;;;;;;;;;5073304;28;20286;-72
2022/04/27 09:52:00;;;;;;;11.27;7.43;;;;;;;;;;5069251;28;20293;-71
2022/04/27 09:54:29;;;;;;;7.70;6.70;;;;;;;;;;5070983;28;20937;-74
2022/04/27 09:56:58;;;;;;;8.80;6.60;;;;;;;;;;5071280;28;20227;-73
2022/04/27 09:59:29;;;;;;;9.07;7.00;;;;;;;;;;5070772;28;20203;-74
2022/04/27 10:01:59;;;;;;;11.03;6.83;;;;;;;;;;5066843;28;20226;-73
2022/04/27 10:04:29;;;;;;;10.37;7.43;;;;;;;;;;5066954;28;20204;-74
2022/04/27 10:06:59;;;;;;;8.70;6.67;;;;;;;;;;5067490;28;20223;-74
2022/04/27 10:09:28;;;;;;;8.57;7.70;;;;;;;;;;5072785;28;20225;-72
2022/04/27 10:12:11;;;;;;;7.27;6.50;;;;;;;;;;5072832;28;20681;-74
2022/04/27 10:14:41;;;;;;;8.70;6.43;;;;;;;;;;5068074;28;20194;-73
2022/04/27 10:17:10;;;;;;;10.10;6.90;;;;;;;;;;5064782;28;20716;-73
2022/04/27 10:19:44;;;;;;;8.43;7.03;;;;;;;;;;5073630;28;20202;-73
2022/04/27 10:22:24;;;;;;;6.97;6.10;;;;;;;;;;5070929;28;20702;-75
2022/04/27 10:24:54;;;;;;;9.17;6.40;;;;;;;;;;5063847;28;20194;-73
2022/04/27 10:27:23;;;;;;;7.80;6.23;;;;;;;;;;5071045;28;20280;-74
2022/04/27 10:29:53;;;;;;;6.13;5.50;;;;;;;;;;5074385;28;20203;-75
2022/04/27 10:32:40;;;;;;;7.50;5.80;;;;;;;;;;5064416;28;20198;-74
2022/04/27 10:35:27;;;;;;;4.93;4.43;;;;;;;;;;5067607;28;20228;-74
2022/04/27 10:38:05;;;;;;;8.40;5.40;;;;;;;;;;5064080;28;20236;-72
2022/04/27 10:40:34;;;;;;;10.13;5.43;;;;;;;;;;5071003;28;20204;-71
2022/04/27 10:43:03;;;;;;;8.37;5.93;;;;;;;;;;5067592;28;20300;-72
2022/04/27 10:45:32;;;;;;;8.03;5.90;;;;;;;;;;5064593;28;20258;-73
2022/04/27 10:48:03;;;;;;;8.33;6.47;;;;;;;;;;5069960;28;20627;-74
2022/04/27 10:50:33;;;;;;;7.83;6.30;;;;;;;;;;5072804;28;20202;-74
2022/04/27 10:53:21;;;;;;;9.00;5.90;;;;;;;;;;5069550;28;20228;-73
2022/04/27 10:55:58;;;;;;;6.10;5.33;;;;;;;;;;5071065;28;20218;-74
2022/04/27 10:58:28;;;;;;;6.50;5.33;;;;;;;;;;5073310;28;20204;-74
2022/04/27 11:01:19;;;;;;;6.87;4.87;;;;;;;;;;5070084;28;20217;-71
2022/04/27 11:03:57;;;;;;;6.37;4.83;;;;;;;;;;5066578;28;20214;-70
2022/04/27 11:06:25;;;;;;;10.70;5.33;;;;;;;;;;5065633;28;20232;-69
2022/04/27 11:09:00;;;;;;;11.10;7.20;;;;;;;;;;5064811;28;20344;-71
2022/04/27 11:11:30;;;;;;;7.30;6.40;;;;;;;;;;5068928;28;20563;-72
2022/04/27 11:14:03;;;;;;;10.67;8.53;;;;;;;;;;5067855;28;20194;-71
2022/04/27 11:16:43;;;;;;;6.87;6.23;;;;;;;;;;5069216;28;20217;-70
2022/04/27 11:19:11;;;;;;;6.67;4.67;;;;;;;;;;5065233;28;20210;-71
2022/04/27 11:21:40;;;;;;;7.20;5.10;;;;;;;;;;5068203;28;20194;-73
2022/04/27 11:24:08;;;;;;;6.73;5.47;;;;;;;;;;5070043;28;20226;-74
2022/04/27 11:26:41;;;;;;;5.03;4.40;;;;;;;;;;5065167;28;20218;-75
2022/04/27 11:29:10;;;;;;;6.33;4.83;;;;;;;;;;5065773;28;20210;-74
2022/04/27 11:31:40;;;;;;;6.43;4.40;;;;;;;;;;5067747;28;20203;-69
2022/04/27 11:34:24;;;;;;;4.50;4.07;;;;;;;;;;5072009;28;20196;-71
2022/04/27 11:36:53;;;;;;;4.77;3.80;;;;;;;;;;5074118;28;20304;-74
2022/04/27 11:39:22;;;;;;;4.43;3.73;;;;;;;;;;5074050;28;20267;-75
2022/04/27 11:41:58;;;;;;;35.23;21.17;;;;;;;;;;5076038;28;21567;-72
2022/04/27 11:44:26;;;;;;;5.37;4.13;;;;;;;;;;5076927;28;20757;-73
2022/04/27 11:46:55;;;;;;;7.83;3.77;;;;;;;;;;5075720;28;20627;-74
2022/04/27 11:49:24;;;;;;;3.87;3.40;;;;;;;;;;5074927;28;20289;-72
2022/04/27 11:51:52;;;;;;;5.60;4.20;;;;;;;;;;5075737;28;20267;-75
2022/04/27 11:54:30;;;;;;;6.23;3.10;;;;;;;;;;5074435;28;20198;-72
2022/04/27 11:57:01;;;;;;;4.17;3.57;;;;;;;;;;5075930;28;20221;-73
2022/04/27 11:59:41;;;;;;;4.67;3.90;;;;;;;;;;5074037;28;20247;-73
2022/04/27 12:02:11;;;;;;;4.63;4.17;;;;;;;;;;5069530;28;20280;-72
2022/04/27 12:04:42;;;;;;;6.40;3.90;;;;;;;;;;5064960;28;20239;-72
2022/04/27 12:07:13;;;;;;;4.17;3.00;;;;;;;;;;5071110;28;20686;-72
2022/04/27 12:09:41;;;;;;;4.73;3.40;;;;;;;;;;5069805;28;20207;-72
2022/04/27 12:12:12;;;;;;;4.00;2.80;;;;;;;;;;5076747;28;20203;-72
2022/04/27 12:14:40;;;;;;;3.33;3.00;;;;;;;;;;5074839;28;20190;-75
2022/04/27 12:17:28;;;;;;;3.43;3.00;;;;;;;;;;5063474;28;20694;-77
2022/04/27 12:19:58;;;;;;;3.90;3.60;;;;;;;;;;5075078;28;20206;-77
2022/04/27 12:22:26;;;;;;;3.73;3.13;;;;;;;;;;5070638;28;20253;-76
2022/04/27 12:25:00;;;;;;;7.47;3.70;;;;;;;;;;5076513;28;20230;-76
2022/04/27 12:27:28;;;;;;;5.93;3.30;;;;;;;;;;5072278;28;20201;-72
2022/04/27 12:30:04;;;;;;;4.17;3.77;;;;;;;;;;5073432;28;20202;-72
2022/04/27 12:32:33;;;;;;;3.47;3.17;;;;;;;;;;5075122;28;20197;-72
2022/04/27 12:37:52;;;;;;;7.50;3.17;;;;;;;;;;5075261;28;20206;-72
2022/04/27 12:40:21;;;;;;;3.63;3.33;;;;;;;;;;5072191;28;20214;-72
2022/04/27 12:43:02;;;;;;;6.00;3.30;;;;;;;;;;5065266;28;20198;-72
2022/04/27 12:45:30;;;;;;;4.20;3.50;;;;;;;;;;5072765;28;20222;-71
2022/04/27 12:47:58;;;;;;;4.30;3.90;;;;;;;;;;5066995;28;20233;-72
2022/04/27 12:50:29;;;;;;;5.07;4.27;;;;;;;;;;5066650;28;20211;-72
2022/04/27 12:53:08;;;;;;;4.27;3.83;;;;;;;;;;5075278;28;20205;-72
2022/04/27 12:55:36;;;;;;;4.20;3.57;;;;;;;;;;5070392;28;20218;-72
2022/04/27 12:58:04;;;;;;;4.20;3.27;;;;;;;;;;5073570;28;20233;-74
2022/04/27 13:00:40;;;;;;;4.40;3.27;;;;;;;;;;5069438;28;20409;-76
2022/04/27 13:03:09;;;;;;;3.70;3.33;;;;;;;;;;5069470;28;20233;-75
2022/04/27 13:05:40;;;;;;;4.20;3.43;;;;;;;;;;5070307;28;20221;-75
2022/04/27 13:08:08;;;;;;;3.40;2.70;;;;;;;;;;5073753;28;20199;-75
2022/04/27 13:13:19;;;;;;;5.83;4.00;;;;;;;;;;5029474;28;20630;-75
2022/04/27 13:15:47;;;;;;;4.03;3.60;;;;;;;;;;5067775;28;20244;-75
2022/04/27 13:18:17;;;;;;;9.30;4.30;;;;;;;;;;5070481;28;20236;-74
2022/04/27 13:20:48;;;;;;;15.43;5.60;;;;;;;;;;5069116;28;20206;-73
2022/04/27 13:23:17;;;;;;;3.30;3.10;;;;;;;;;;5069834;28;20228;-72
2022/04/27 13:25:46;;;;;;;8.13;3.43;;;;;;;;;;5067347;28;20280;-76
2022/04/27 13:28:14;;;;;;;5.40;3.20;;;;;;;;;;5069047;28;20731;-72
2022/04/27 13:30:42;;;;;;;3.30;3.00;;;;;;;;;;5066648;28;20211;-72
2022/04/27 13:33:10;;;;;;;4.20;2.97;;;;;;;;;;5069575;28;20238;-70
2022/04/27 13:35:38;;;;;;;3.90;3.07;;;;;;;;;;5068979;28;20244;-73
2022/04/27 13:38:09;;;;;;;3.57;2.97;;;;;;;;;;5072676;28;20198;-73
2022/04/27 13:40:37;;;;;;;3.73;2.60;;;;;;;;;;5071850;28;20216;-72
2022/04/27 13:43:06;;;;;;;2.87;2.67;;;;;;;;;;5067738;28;20195;-74
2022/04/27 13:45:34;;;;;;;5.07;3.10;;;;;;;;;;5070004;28;20598;-74
2022/04/27 13:48:02;;;;;;;3.07;2.77;;;;;;;;;;5068497;28;20198;-73
2022/04/27 13:50:30;;;;;;;3.73;2.03;;;;;;;;;;5070819;28;20201;-73
2022/04/27 13:52:58;;;;;;;2.57;2.37;;;;;;;;;;5073171;28;20234;-77
2022/04/27 13:55:28;;;;;;;4.07;2.80;;;;;;;;;;5066598;28;20716;-77
2022/04/27 13:57:56;;;;;;;3.53;2.27;;;;;;;;;;5068424;28;20211;-77
2022/04/27 14:00:24;;;;;;;4.50;2.30;;;;;;;;;;5070662;28;20198;-77
2022/04/27 14:02:53;;;;;;;3.00;2.37;;;;;;;;;;5070165;28;20226;-77
2022/04/27 14:05:21;;;;;;;2.77;2.57;;;;;;;;;;5070456;28;20230;-74
2022/04/27 14:07:50;;;;;;;4.50;2.30;;;;;;;;;;5067976;28;20213;-77
2022/04/27 14:10:18;;;;;;;2.90;2.20;;;;;;;;;;5072896;28;20198;-77
2022/04/27 14:15:33;;;;;;;4.60;2.60;;;;;;;;;;5066298;28;20598;-76
2022/04/27 14:18:15;;;;;;;2.73;2.40;;;;;;;;;;5074261;28;20251;-77
2022/04/27 14:20:44;;;;;;;2.93;2.00;;;;;;;;;;5065715;28;20202;-76
2022/04/27 14:23:12;;;;;;;2.73;2.37;;;;;;;;;;5067487;28;20263;-76
2022/04/27 14:25:41;;;;;;;2.40;2.20;;;;;;;;;;5070057;28;20287;-76
2022/04/27 14:28:13;;;;;;;1.70;1.60;;;;;;;;;;5066845;28;20261;-76
2022/04/27 14:30:42;;;;;;;3.47;2.23;;;;;;;;;;5072984;28;20202;-76
2022/04/27 14:33:11;;;;;;;2.10;2.00;;;;;;;;;;5074577;28;20206;-78
2022/04/27 14:35:39;;;;;;;6.03;2.60;;;;;;;;;;5067517;28;20242;-76
2022/04/27 14:38:08;;;;;;;5.53;2.13;;;;;;;;;;5071700;28;20210;-76
2022/04/27 14:40:36;;;;;;;2.87;2.67;;;;;;;;;;5070095;28;20615;-76
2022/04/27 14:43:05;;;;;;;3.90;2.00;;;;;;;;;;5066588;28;20195;-76
2022/04/27 14:45:35;;;;;;;3.33;2.10;;;;;;;;;;5066234;28;20226;-76
2022/04/27 14:48:04;;;;;;;2.70;1.80;;;;;;;;;;5066431;28;20205;-74
2022/04/27 14:50:33;;;;;;;2.10;1.93;;;;;;;;;;5070695;28;20271;-76
2022/04/27 14:53:02;;;;;;;1.90;1.80;;;;;;;;;;5069651;28;20198;-76
2022/04/27 14:55:30;;;;;;;2.90;1.90;;;;;;;;;;5068508;28;20646;-76
2022/04/27 14:57:58;;;;;;;4.17;2.70;;;;;;;;;;5070475;28;20206;-76
2022/04/27 15:00:27;;;;;;;2.90;2.10;;;;;;;;;;5073347;28;20216;-76
2022/04/27 15:02:56;;;;;;;2.53;2.27;;;;;;;;;;5071612;28;20231;-76
2022/04/27 15:05:25;;;;;;;3.40;2.07;;;;;;;;;;5070223;28;20230;-76
2022/04/27 15:07:53;;;;;;;3.13;2.10;;;;;;;;;;5073175;28;20256;-76
2022/04/27 15:10:21;;;;;;;2.10;1.90;;;;;;;;;;5071437;28;20244;-76
2022/04/27 15:12:55;;;;;;;2.40;1.93;;;;;;;;;;5073609;28;20266;-76
2022/04/27 15:15:23;;;;;;;1.70;1.60;;;;;;;;;;5079001;28;20218;-76
2022/04/27 15:17:51;;;;;;;2.00;1.87;;;;;;;;;;5074163;28;20225;-76